createdAt,value
2019-03-21T00:05:03.672Z,9.96
2019-03-21T00:10:54.755Z,9.96
2019-03-21T00:16:01.551Z,9.96
2019-03-21T00:21:06.252Z,9.94
2019-03-21T00:26:10.861Z,9.94
2019-03-21T00:31:16.494Z,9.90
2019-03-21T00:36:21.063Z,9.92
2019-03-21T00:41:25.679Z,9.82
2019-03-21T00:46:30.301Z,9.79
2019-03-21T00:51:34.885Z,9.86
2019-03-21T00:56:39.462Z,9.74
2019-03-21T01:01:44.062Z,9.82
2019-03-21T01:06:48.643Z,9.79
2019-03-21T01:11:53.199Z,9.71
2019-03-21T01:16:57.859Z,9.73
2019-03-21T01:22:02.424Z,9.75
2019-03-21T01:27:07.002Z,9.65
2019-03-21T01:32:11.676Z,9.69
2019-03-21T01:37:16.370Z,9.64
2019-03-21T01:42:21.336Z,9.63
2019-03-21T01:47:25.925Z,9.62
2019-03-21T01:52:30.472Z,9.57
2019-03-21T01:57:35.314Z,9.60
2019-03-21T02:02:40.000Z,9.59
2019-03-21T02:07:44.579Z,9.56
2019-03-21T02:12:49.217Z,9.51
2019-03-21T02:17:53.797Z,9.46
2019-03-21T02:22:58.944Z,9.38
2019-03-21T02:28:03.732Z,9.36
2019-03-21T02:33:15.091Z,9.31
2019-03-21T02:38:21.193Z,9.27
2019-03-21T02:43:25.744Z,9.28
2019-03-21T02:48:30.577Z,9.24
2019-03-21T02:53:35.156Z,9.19
2019-03-21T02:58:39.839Z,9.18
2019-03-21T03:03:44.472Z,9.18
2019-03-21T03:08:49.101Z,9.19
2019-03-21T03:13:53.825Z,9.24
2019-03-21T03:18:58.459Z,9.25
2019-03-21T03:24:04.059Z,9.21
2019-03-21T03:29:09.132Z,9.24
2019-03-21T03:34:13.948Z,9.27
2019-03-21T03:39:18.980Z,9.27
2019-03-21T03:44:23.949Z,9.28
2019-03-21T03:49:28.573Z,9.38
2019-03-21T03:54:33.698Z,9.31
2019-03-21T03:59:38.667Z,9.34
2019-03-21T04:04:43.281Z,9.33
2019-03-21T04:09:47.860Z,9.31
2019-03-21T04:14:52.454Z,9.35
2019-03-21T04:19:57.276Z,9.40
2019-03-21T04:25:01.822Z,9.50
2019-03-21T04:30:07.892Z,9.45
2019-03-21T04:35:12.861Z,9.45
2019-03-21T04:40:17.439Z,9.36
2019-03-21T04:45:22.025Z,9.37
2019-03-21T04:50:26.683Z,9.37
2019-03-21T04:55:31.730Z,9.29
2019-03-21T05:00:37.017Z,9.25
2019-03-21T05:05:41.996Z,9.26
2019-03-21T05:10:46.745Z,9.26
2019-03-21T05:15:53.388Z,9.24
2019-03-21T05:20:58.223Z,9.31
2019-03-21T05:26:04.034Z,9.32
2019-03-21T05:31:21.111Z,9.42
2019-03-21T05:36:25.697Z,9.37
2019-03-21T05:41:30.258Z,9.34
2019-03-21T05:46:35.172Z,9.32
2019-03-21T05:51:39.753Z,9.46
2019-03-21T05:56:44.379Z,9.54
2019-03-21T06:01:49.086Z,9.55
2019-03-21T06:07:14.193Z,9.63
2019-03-21T06:12:19.181Z,9.59
2019-03-21T06:17:23.868Z,9.62
2019-03-21T06:22:51.673Z,9.69
2019-03-21T06:27:56.644Z,9.74
2019-03-21T06:33:01.234Z,9.81
2019-03-21T06:38:05.827Z,9.94
2019-03-21T06:43:10.413Z,9.92
2019-03-21T06:48:14.988Z,9.96
2019-03-21T06:53:19.591Z,10.01
2019-03-21T06:58:24.245Z,10.05
2019-03-21T07:03:28.793Z,10.13
2019-03-21T07:08:33.343Z,10.19
2019-03-21T07:13:37.957Z,10.25
2019-03-21T07:18:42.518Z,10.28
2019-03-21T07:23:47.426Z,10.26
2019-03-21T07:28:52.031Z,10.29
2019-03-21T07:33:56.622Z,10.32
2019-03-21T07:39:01.736Z,10.31
2019-03-21T07:44:06.615Z,10.27
2019-03-21T07:49:11.569Z,10.30
2019-03-21T07:54:16.162Z,10.43
2019-03-21T07:59:20.745Z,10.49
2019-03-21T08:04:25.320Z,10.53
2019-03-21T08:09:29.944Z,10.63
2019-03-21T08:14:34.854Z,10.82
2019-03-21T08:19:39.536Z,11.04
2019-03-21T08:24:44.120Z,10.98
2019-03-21T08:29:49.082Z,11.04
2019-03-21T08:34:53.653Z,11.25
2019-03-21T08:39:58.224Z,11.17
2019-03-21T08:45:03.067Z,11.46
2019-03-21T08:55:43.903Z,11.91
2019-03-21T09:00:48.472Z,11.72
2019-03-21T09:05:53.026Z,11.55
2019-03-21T09:10:57.968Z,11.63
2019-03-21T09:16:02.579Z,11.69
2019-03-21T09:21:18.847Z,11.49
2019-03-21T09:31:50.146Z,11.64
2019-03-21T09:42:10.437Z,11.60
2019-03-21T09:47:15.042Z,11.87
2019-03-21T09:52:19.599Z,12.01
2019-03-21T10:02:41.689Z,12.35
2019-03-21T10:07:46.285Z,12.40
2019-03-21T10:12:50.897Z,12.23
2019-03-21T10:23:11.078Z,12.29
2019-03-21T10:28:15.739Z,12.13
2019-03-21T10:33:20.353Z,12.22
2019-03-21T10:38:24.915Z,12.25
2019-03-21T10:43:29.569Z,12.21
2019-03-21T10:48:34.215Z,12.15
2019-03-21T10:53:38.843Z,12.26
2019-03-21T10:58:43.455Z,12.52
2019-03-21T11:03:48.042Z,12.20
2019-03-21T11:08:52.683Z,12.50
2019-03-21T11:13:57.311Z,12.74
2019-03-21T11:19:02.020Z,12.60
2019-03-21T11:24:07.086Z,12.29
2019-03-21T11:29:11.670Z,12.52
2019-03-21T11:34:16.283Z,12.51
2019-03-21T11:39:21.137Z,12.73
2019-03-21T11:44:26.331Z,12.83
2019-03-21T11:49:30.971Z,12.56
2019-03-21T11:54:35.549Z,12.38
2019-03-21T11:59:51.119Z,12.64
2019-03-21T12:04:47.981Z,12.69
2019-03-21T12:09:52.573Z,12.93
2019-03-21T12:14:57.366Z,13.06
2019-03-21T12:20:02.133Z,13.20
2019-03-21T12:25:07.399Z,12.97
2019-03-21T12:30:13.603Z,13.01
2019-03-21T12:35:21.269Z,13.26
2019-03-21T12:40:26.853Z,13.22
2019-03-21T12:45:33.009Z,13.41
2019-03-21T12:50:37.693Z,13.46
2019-03-21T12:55:42.237Z,13.42
2019-03-21T13:00:46.928Z,13.43
2019-03-21T13:05:51.902Z,13.74
2019-03-21T13:11:00.826Z,14.00
2019-03-21T13:16:05.280Z,13.52
2019-03-21T13:21:09.830Z,13.28
2019-03-21T13:26:14.423Z,13.77
2019-03-21T13:31:19.088Z,13.66
2019-03-21T13:36:23.818Z,13.81
2019-03-21T13:41:28.356Z,13.81
2019-03-21T13:46:32.967Z,13.41
2019-03-21T13:51:37.647Z,13.33
2019-03-21T13:56:42.842Z,13.53
2019-03-21T14:01:47.396Z,13.78
2019-03-21T14:06:52.080Z,13.15
2019-03-21T14:11:57.665Z,13.41
2019-03-21T14:17:02.260Z,13.71
2019-03-21T14:22:06.974Z,13.84
2019-03-21T14:27:11.612Z,14.11
2019-03-21T14:32:16.871Z,13.93
2019-03-21T14:37:21.481Z,13.91
2019-03-21T14:42:26.645Z,14.10
2019-03-21T14:47:36.172Z,14.42
2019-03-21T14:52:37.969Z,14.51
2019-03-21T14:57:42.534Z,14.42
2019-03-21T15:02:47.552Z,14.29
2019-03-21T15:07:53.345Z,15.02
2019-03-21T15:12:57.951Z,15.51
2019-03-21T15:18:02.774Z,15.81
2019-03-21T15:23:07.361Z,15.26
2019-03-21T15:28:12.108Z,15.32
2019-03-21T15:33:16.777Z,14.91
2019-03-21T15:38:21.537Z,14.85
2019-03-21T15:43:26.365Z,15.26
2019-03-21T15:48:30.960Z,15.10
2019-03-21T15:53:35.831Z,14.96
2019-03-21T15:58:40.411Z,14.58
2019-03-21T16:03:45.003Z,14.37
2019-03-21T16:08:49.879Z,14.06
2019-03-21T16:13:54.429Z,13.63
2019-03-21T16:18:59.126Z,13.73
2019-03-21T16:24:05.618Z,13.62
2019-03-21T16:29:10.501Z,13.44
2019-03-21T16:34:17.202Z,14.07
2019-03-21T16:39:22.229Z,14.30
2019-03-21T17:16:41.060Z,11.13
2019-03-21T17:21:45.765Z,10.77
2019-03-21T17:37:28.544Z,9.77
2019-03-21T17:48:14.274Z,9.26
2019-03-21T17:53:19.160Z,8.96
2019-03-21T17:58:42.693Z,8.84
2019-03-21T18:09:21.820Z,8.18
2019-03-21T18:19:43.875Z,8.07
2019-03-21T18:41:14.989Z,7.45
2019-03-21T18:51:53.277Z,7.22
2019-03-21T19:07:29.194Z,6.85
2019-03-21T19:18:12.194Z,6.84
2019-03-21T19:28:53.463Z,6.55
2019-03-21T20:06:52.431Z,5.87
2019-03-21T20:12:17.748Z,5.79
2019-03-21T20:33:51.727Z,5.32
2019-03-21T20:38:56.518Z,5.36
2019-03-21T20:44:01.599Z,5.18
2019-03-21T20:49:06.377Z,5.13
2019-03-21T20:54:12.261Z,5.02
2019-03-21T20:59:17.241Z,5.08
2019-03-21T21:04:22.303Z,5.05
2019-03-21T21:09:27.235Z,4.87
2019-03-21T21:14:31.846Z,4.79
2019-03-21T21:19:36.409Z,4.67
2019-03-21T21:24:41.490Z,4.54
2019-03-21T21:29:48.047Z,4.40
2019-03-21T21:34:54.609Z,4.38
2019-03-21T21:39:59.762Z,4.42
2019-03-21T21:45:05.445Z,4.35
2019-03-21T21:50:10.900Z,4.29
2019-03-21T21:55:15.620Z,4.21
2019-03-21T22:00:20.856Z,4.25
2019-03-21T22:05:25.851Z,4.14
2019-03-21T22:10:30.423Z,4.01
2019-03-21T22:15:35.118Z,3.99
2019-03-21T22:20:39.710Z,3.94
2019-03-21T22:25:44.334Z,3.83
2019-03-21T22:30:49.297Z,3.70
2019-03-21T22:35:53.852Z,3.69
2019-03-21T22:40:58.786Z,3.65
2019-03-21T22:46:03.439Z,3.60
2019-03-21T22:51:08.050Z,3.48
2019-03-21T22:56:12.656Z,3.50
2019-03-21T23:01:17.249Z,3.51
2019-03-21T23:06:21.861Z,3.51
2019-03-21T23:11:26.771Z,3.47
2019-03-21T23:16:31.350Z,3.37
2019-03-21T23:21:36.205Z,3.25
2019-03-21T23:26:52.211Z,3.22
2019-03-21T23:31:47.510Z,3.28
2019-03-21T23:36:52.090Z,3.16
2019-03-21T23:41:56.787Z,3.10
2019-03-21T23:47:01.543Z,3.06
2019-03-21T23:52:06.125Z,2.91
2019-03-21T23:57:10.728Z,2.82
